CL05 weather

First Interstate Bank Operations Center Heliport
Fremont, California, United States

Public forecast

Using degrees Fahrenheit for public forecast. Weather courtesy of forecast.io.

METAR (pilot weather report)

Report is more than 2 hours old.

Closest report is Palo Alto Airport of Santa Clara County, 8.3 nm (15.3 km) SW. Retrieved 2019/06/16 03:47 UTC (4 hours ago):

KPAO 160347Z 00000KT 10SM BKN180 15/11 A2994 RMK LAST GPS VOR/DME APPROACH NA AT NIGHT

TAF (pilot weather forecast)

Closest forecast is Norman Y. Mineta San Jose International Airport, 11.4 nm (21.1 km) SSE. Retrieved 2019/06/16 06:22 UTC (2 hours ago):

TAF KSJC 160520Z 1606/1706 30004KT P6SM OVC015 FM161700 30005KT P6SM SCT015 FM161900 31012KT P6SM SKC FM170400 31008KT P6SM SKC